Strona główna
METAR-TAF:

METAR-TAF

Lotnisko :

Clearfield-Lawrence Airport

Clearfield, Pensylwania, Stany Zjednoczone

Szerokość geograficzna: 41-02-48N, Długość geograficzna: 078-24-42W, wysokość: 462 m

Aktualna obserwacja pogody

Raport powstał 20 minut temu, godzina 10:46 UTC
Cisza
Temperatura 19°C
Wilgotność 100%
Ciśnienie 1014 hPa
Widzialność: 0.4 km
Mało chmury na wysokości 300 ft
Przerywane chmury na wysokości 1700 ft
Zachmurzenie całkowite na wysokości 4400 ft
silny deszcz, mgła

METAR: KFIG 181046Z AUTO 00000KT 1/4SM +RA FG FEW003 BKN017 OVC044 19/19 A2995 RMK AO2 P0048 T01890189

czas: 07:06 (11:06 UTC)


TAF: brakujący

Obserwacja i prognoza pogody dla ponad 4000 lotnisk (raport METAR i TAF).

Dostępne stacje oznaczono żółtymi i czerwonymi punktami na mapie.

Najedź kursorem aby zobaczyć nazwę stacji.

Kliknij aby zobaczyć obserwacje i prognozy pogody.

Aby zmienić mapę: kliknij na zielony przycisk z czarnym krzyżykiem, aby powiększyć; na zielony przycisk z myślnikiem, aby pomniejszyć; na zielone strzałki, aby przejść do map sąsiednich.


METAR-TAF: